Time;durP1;ratioP1;P1;durP2;ratioP2;P2;SDS_P1;SDS_P2;PMS_P1;PMS_P2;Temp;Humidity;BMP_temperature;BMP_pressure;BME280_temperature;BME280_humidity;BME280_pressure;Samples;Min_cycle;Max_cycle;Signal;HPM_P1;HPM_P2
2023/03/09 00:01:22;;;;;;;14.60;13.20;;;22.40;67.00;;;;;;5991544;29;89271;-72
2023/03/09 00:04:24;;;;;;;14.30;13.00;;;22.40;67.10;;;;;;6009091;29;87612;-72
2023/03/09 00:07:26;;;;;;;14.10;12.80;;;22.40;67.10;;;;;;6009297;29;89172;-72
2023/03/09 00:10:29;;;;;;;14.20;12.90;;;22.40;67.10;;;;;;6003775;29;89398;-72
2023/03/09 00:13:32;;;;;;;13.98;12.68;;;22.30;67.10;;;;;;6004478;29;89318;-72
2023/03/09 00:16:34;;;;;;;15.32;13.73;;;22.30;67.10;;;;;;6011706;29;88047;-71
2023/03/09 00:19:36;;;;;;;14.20;12.85;;;22.40;67.10;;;;;;6013237;29;89196;-72
2023/03/09 00:22:38;;;;;;;14.43;13.02;;;22.40;67.10;;;;;;5992741;29;89215;-72
2023/03/09 00:25:41;;;;;;;14.05;12.75;;;22.30;67.10;;;;;;6013685;29;89070;-72
2023/03/09 00:28:43;;;;;;;13.75;12.45;;;22.30;67.10;;;;;;5994000;29;88131;-72
2023/03/09 00:31:46;;;;;;;13.68;12.38;;;22.40;67.20;;;;;;5991613;29;89123;-72
2023/03/09 00:34:48;;;;;;;14.48;13.15;;;22.30;67.10;;;;;;6004728;29;88495;-72
2023/03/09 00:37:50;;;;;;;15.15;13.65;;;22.30;67.90;;;;;;5995525;29;89169;-72
2023/03/09 00:40:53;;;;;;;14.18;12.80;;;22.30;67.10;;;;;;6005696;29;89128;-72
2023/03/09 00:43:55;;;;;;;13.77;12.48;;;22.30;67.10;;;;;;6001535;29;90075;-72
2023/03/09 00:46:57;;;;;;;14.00;12.70;;;22.30;67.10;;;;;;6013085;29;89046;-72
2023/03/09 00:50:00;;;;;;;13.95;12.65;;;22.30;67.10;;;;;;6013256;29;89093;-71
2023/03/09 00:53:03;;;;;;;14.50;13.10;;;22.30;67.10;;;;;;6013022;29;89489;-72
2023/03/09 00:56:09;;;;;;;14.90;13.43;;;22.30;67.10;;;;;;6000834;29;89373;-72
2023/03/09 00:59:11;;;;;;;14.05;12.73;;;22.30;67.20;;;;;;6002787;29;88734;-71
2023/03/09 01:02:13;;;;;;;13.23;12.02;;;22.20;67.10;;;;;;5991597;29;89078;-71
2023/03/09 01:05:15;;;;;;;13.27;12.05;;;22.20;67.10;;;;;;5990753;29;88513;-72
2023/03/09 01:08:18;;;;;;;13.77;12.48;;;22.20;67.10;;;;;;6002623;29;89394;-72
2023/03/09 01:11:21;;;;;;;13.65;12.35;;;22.20;67.00;;;;;;6009877;29;88504;-72
2023/03/09 01:14:23;;;;;;;13.50;12.30;;;22.20;67.00;;;;;;6008485;29;90076;-72
2023/03/09 01:17:25;;;;;;;13.23;11.93;;;22.20;67.90;;;;;;5993832;29;89104;-71
2023/03/09 01:20:27;;;;;;;13.25;11.95;;;22.20;67.10;;;;;;6005242;29;89267;-72
2023/03/09 01:23:30;;;;;;;13.68;12.38;;;22.20;67.10;;;;;;6010611;29;89179;-72
2023/03/09 01:26:33;;;;;;;13.05;11.75;;;22.20;67.10;;;;;;6013036;29;89151;-71
2023/03/09 01:29:35;;;;;;;13.93;12.52;;;22.20;67.20;;;;;;6004731;29;88104;-71
2023/03/09 01:32:37;;;;;;;13.23;11.93;;;22.20;67.20;;;;;;6007341;29;89100;-72
2023/03/09 01:35:39;;;;;;;12.65;11.50;;;22.20;67.10;;;;;;6010004;29;88695;-72
2023/03/09 01:38:41;;;;;;;12.50;11.20;;;22.20;67.20;;;;;;5999429;29;89352;-72
2023/03/09 01:41:45;;;;;;;12.15;11.05;;;22.20;67.20;;;;;;6008294;29;89136;-72
2023/03/09 01:45:02;;;;;;;12.40;11.20;;;22.20;67.20;;;;;;6014289;29;90000;-71
2023/03/09 01:48:04;;;;;;;12.70;11.52;;;22.20;67.10;;;;;;6012708;29;89296;-71
2023/03/09 01:51:06;;;;;;;13.77;12.38;;;22.20;67.10;;;;;;6002382;29;89347;-72
2023/03/09 01:54:13;;;;;;;13.05;11.85;;;22.20;67.10;;;;;;6015883;29;89407;-72
2023/03/09 01:57:24;;;;;;;13.10;11.90;;;22.20;67.10;;;;;;6008144;29;89050;-72
2023/03/09 02:00:27;;;;;;;13.07;11.80;;;22.20;67.20;;;;;;6014692;29;89580;-72
2023/03/09 02:03:33;;;;;;;12.23;11.13;;;22.20;67.20;;;;;;6015566;29;89129;-71
2023/03/09 02:06:36;;;;;;;12.43;11.23;;;22.10;67.10;;;;;;6011482;29;88759;-72
2023/03/09 02:09:43;;;;;;;12.00;10.90;;;22.10;67.10;;;;;;6014886;29;89326;-72
2023/03/09 02:12:52;;;;;;;11.65;10.55;;;22.10;67.20;;;;;;6004543;29;89405;-72
2023/03/09 02:15:55;;;;;;;10.23;9.20;;;22.10;67.20;;;;;;6010518;29;89864;-71
2023/03/09 02:18:57;;;;;;;10.52;9.52;;;22.10;67.10;;;;;;6015769;29;88087;-72
2023/03/09 02:22:00;;;;;;;10.27;9.27;;;22.10;66.90;;;;;;6015685;29;89001;-71
2023/03/09 02:25:11;;;;;;;11.70;9.88;;;22.10;66.90;;;;;;6016630;29;88980;-72
2023/03/09 02:28:15;;;;;;;10.68;9.70;;;22.10;67.00;;;;;;6013850;29;89219;-71
2023/03/09 02:31:19;;;;;;;11.70;10.50;;;22.10;67.00;;;;;;6007462;29;89138;-72
2023/03/09 02:34:21;;;;;;;10.88;9.88;;;22.10;67.10;;;;;;6010400;29;89092;-71
2023/03/09 02:37:31;;;;;;;11.23;10.15;;;22.10;67.10;;;;;;6010361;29;88323;-71
2023/03/09 02:40:35;;;;;;;11.65;10.55;;;22.10;67.10;;;;;;6016048;29;89170;-72
2023/03/09 02:43:43;;;;;;;11.00;9.90;;;22.10;67.10;;;;;;6015378;29;89033;-72
2023/03/09 02:46:45;;;;;;;11.52;10.43;;;22.10;67.20;;;;;;5999973;29;90339;-72
2023/03/09 02:49:47;;;;;;;11.52;10.43;;;22.00;67.10;;;;;;6012823;29;89342;-72
2023/03/09 02:52:50;;;;;;;10.85;9.85;;;22.00;67.10;;;;;;6010714;29;89416;-72
2023/03/09 02:55:52;;;;;;;10.85;9.75;;;22.00;67.10;;;;;;6004173;29;89172;-72
2023/03/09 02:58:56;;;;;;;10.93;9.93;;;22.00;67.20;;;;;;6014193;29;89075;-72
2023/03/09 03:01:58;;;;;;;11.43;10.32;;;22.00;67.10;;;;;;6014478;29;89620;-71
2023/03/09 03:05:00;;;;;;;11.00;9.90;;;22.10;67.10;;;;;;6015238;29;89114;-72
2023/03/09 03:08:02;;;;;;;11.38;10.30;;;22.00;67.10;;;;;;6014603;29;88443;-72
2023/03/09 03:11:04;;;;;;;10.82;9.82;;;22.10;67.10;;;;;;6011337;29;89095;-73
2023/03/09 03:14:08;;;;;;;11.50;10.30;;;22.00;67.10;;;;;;6006458;29;89098;-72
2023/03/09 03:17:10;;;;;;;10.70;9.68;;;22.00;67.10;;;;;;6002541;29;90077;-72
2023/03/09 03:20:14;;;;;;;10.63;9.52;;;22.00;67.10;;;;;;6005383;29;87804;-72
2023/03/09 03:23:16;;;;;;;10.85;9.85;;;22.00;67.20;;;;;;6013187;29;89185;-71
2023/03/09 03:26:18;;;;;;;10.68;9.65;;;22.00;67.10;;;;;;6008118;29;88824;-72
2023/03/09 03:29:22;;;;;;;11.23;10.13;;;22.00;67.10;;;;;;6010220;29;89108;-72
2023/03/09 03:32:24;;;;;;;11.90;10.70;;;22.00;67.10;;;;;;6002117;29;89449;-72
2023/03/09 03:35:27;;;;;;;11.35;10.20;;;22.00;67.10;;;;;;6014718;29;89494;-71
2023/03/09 03:38:29;;;;;;;10.40;9.40;;;22.00;67.10;;;;;;6015360;29;88278;-71
2023/03/09 03:41:32;;;;;;;11.57;10.48;;;22.00;67.10;;;;;;6000600;29;87811;-72
2023/03/09 03:44:35;;;;;;;11.43;10.32;;;22.00;67.10;;;;;;6014657;29;88006;-72
2023/03/09 03:47:37;;;;;;;11.55;10.45;;;22.00;67.10;;;;;;6001086;29;89539;-72
2023/03/09 03:50:39;;;;;;;11.88;10.73;;;22.00;67.10;;;;;;6000956;29;90055;-73
2023/03/09 03:53:42;;;;;;;11.45;10.35;;;22.00;67.10;;;;;;6004198;29;87963;-72
2023/03/09 03:56:44;;;;;;;11.15;10.02;;;21.90;67.10;;;;;;6001137;29;89224;-72
2023/03/09 03:59:48;;;;;;;10.82;9.82;;;21.90;67.10;;;;;;6011433;29;89278;-72
2023/03/09 04:02:50;;;;;;;11.88;10.65;;;22.00;67.10;;;;;;5999789;29;89421;-72
2023/03/09 04:05:52;;;;;;;11.18;10.10;;;22.00;67.20;;;;;;6012381;29;90004;-72
2023/03/09 04:08:54;;;;;;;11.20;10.20;;;21.90;67.10;;;;;;5992923;29;87529;-72
2023/03/09 04:11:56;;;;;;;10.98;9.90;;;21.90;67.10;;;;;;6003492;29;89270;-72
2023/03/09 04:14:59;;;;;;;10.90;9.90;;;21.90;67.20;;;;;;6012698;29;89069;-72
2023/03/09 04:18:02;;;;;;;10.60;9.52;;;21.90;67.10;;;;;;5994983;29;90418;-72
2023/03/09 04:21:04;;;;;;;56.05;11.90;;;22.00;67.10;;;;;;6003041;29;89107;-72
2023/03/09 04:24:06;;;;;;;32.42;10.60;;;21.90;66.80;;;;;;5996662;29;89196;-71
2023/03/09 04:27:09;;;;;;;27.17;10.48;;;21.90;66.80;;;;;;6006980;29;89367;-72
2023/03/09 04:30:13;;;;;;;23.58;10.52;;;21.90;66.80;;;;;;5993882;29;89059;-72
2023/03/09 04:33:15;;;;;;;17.73;9.65;;;21.90;66.90;;;;;;6009229;29;88007;-72
2023/03/09 04:36:17;;;;;;;16.73;9.48;;;21.90;67.00;;;;;;6009388;29;89173;-71
2023/03/09 04:39:19;;;;;;;18.40;9.10;;;21.90;67.10;;;;;;6005833;29;88675;-72
2023/03/09 04:42:21;;;;;;;17.17;9.32;;;21.90;67.10;;;;;;6010984;29;89073;-72
2023/03/09 04:45:25;;;;;;;17.40;8.88;;;21.90;67.10;;;;;;6010552;29;89268;-72
2023/03/09 04:48:27;;;;;;;13.98;9.10;;;21.90;67.10;;;;;;6010440;29;89419;-72
2023/03/09 04:51:29;;;;;;;14.50;9.15;;;21.90;67.10;;;;;;6012620;29;89051;-72
2023/03/09 04:54:31;;;;;;;10.07;8.07;;;21.90;67.10;;;;;;5997519;29;89178;-73
2023/03/09 04:57:33;;;;;;;10.73;7.97;;;21.90;66.90;;;;;;5996164;29;89362;-72
2023/03/09 05:00:37;;;;;;;9.50;8.30;;;21.90;66.80;;;;;;6001922;29;88004;-72
2023/03/09 05:03:39;;;;;;;9.82;7.78;;;21.90;66.70;;;;;;6014031;29;88958;-72
2023/03/09 05:06:42;;;;;;;11.50;7.90;;;21.90;66.70;;;;;;6003599;29;88315;-73
2023/03/09 05:09:44;;;;;;;8.90;6.93;;;21.90;66.80;;;;;;5992541;29;88466;-73
2023/03/09 05:12:46;;;;;;;9.40;6.78;;;21.90;66.70;;;;;;6010745;29;89165;-73
2023/03/09 05:15:50;;;;;;;9.57;6.72;;;21.90;66.70;;;;;;5993568;29;89050;-72
2023/03/09 05:18:52;;;;;;;10.40;7.10;;;21.90;66.70;;;;;;6007429;29;90318;-73
2023/03/09 05:21:54;;;;;;;8.13;6.55;;;21.90;66.60;;;;;;6013368;29;89369;-73
2023/03/09 05:24:56;;;;;;;9.68;6.25;;;21.90;66.60;;;;;;6011169;29;89453;-72
2023/03/09 05:27:58;;;;;;;7.10;6.40;;;21.90;66.60;;;;;;6005289;29;89381;-71
2023/03/09 05:31:02;;;;;;;6.88;6.00;;;21.90;66.60;;;;;;6012031;29;89165;-71
2023/03/09 05:34:04;;;;;;;6.60;5.60;;;22.00;66.60;;;;;;6002128;29;89420;-72
2023/03/09 05:37:06;;;;;;;6.88;5.85;;;22.00;66.60;;;;;;6000475;29;89138;-72
2023/03/09 05:40:10;;;;;;;9.70;6.28;;;22.00;66.60;;;;;;6011497;29;88378;-72
2023/03/09 05:43:12;;;;;;;9.00;6.07;;;22.00;66.60;;;;;;5990250;29;88959;-72
2023/03/09 05:46:17;;;;;;;7.20;6.00;;;22.00;66.60;;;;;;6001372;29;89430;-72
2023/03/09 05:49:19;;;;;;;7.88;5.75;;;22.00;66.60;;;;;;6012984;29;89105;-72
2023/03/09 05:52:21;;;;;;;7.43;6.07;;;22.00;66.70;;;;;;6000484;29;89138;-72
2023/03/09 05:55:23;;;;;;;6.32;5.55;;;22.00;66.60;;;;;;5991766;29;88982;-72
2023/03/09 05:58:26;;;;;;;5.60;5.00;;;22.00;66.60;;;;;;6008648;29;87970;-72
2023/03/09 06:01:30;;;;;;;6.55;5.18;;;22.00;67.00;;;;;;6010826;29;89129;-70
2023/03/09 06:04:32;;;;;;;7.13;5.72;;;22.00;68.60;;;;;;6002656;29;88994;-71
2023/03/09 06:07:34;;;;;;;6.47;5.65;;;22.10;69.50;;;;;;6005876;29;87923;-71
2023/03/09 06:10:37;;;;;;;7.50;5.70;;;22.10;68.30;;;;;;6011744;29;88660;-71
2023/03/09 06:13:40;;;;;;;6.40;5.28;;;22.20;67.80;;;;;;6005976;29;89098;-70
2023/03/09 06:16:43;;;;;;;5.75;5.15;;;22.20;67.70;;;;;;6003533;29;89130;-71
2023/03/09 06:19:46;;;;;;;6.90;5.38;;;22.20;67.60;;;;;;5996603;29;90359;-72
2023/03/09 06:22:48;;;;;;;5.82;5.18;;;22.20;67.60;;;;;;6006501;29;89243;-71
2023/03/09 06:25:50;;;;;;;5.30;4.80;;;22.20;67.60;;;;;;6002909;29;88030;-71
2023/03/09 06:28:52;;;;;;;5.13;4.63;;;22.20;67.60;;;;;;6002248;29;87804;-71
2023/03/09 06:31:56;;;;;;;5.05;4.53;;;22.30;67.70;;;;;;6009659;29;90110;-71
2023/03/09 06:34:58;;;;;;;6.20;5.25;;;22.30;67.60;;;;;;6013196;29;89064;-71
2023/03/09 06:38:01;;;;;;;5.75;4.50;;;22.20;67.50;;;;;;6003888;29;89123;-71
2023/03/09 06:41:03;;;;;;;5.47;4.90;;;22.30;67.50;;;;;;6005464;29;88520;-72
2023/03/09 06:44:06;;;;;;;5.70;4.72;;;22.30;67.40;;;;;;6010069;29;89168;-72
2023/03/09 06:47:09;;;;;;;6.68;4.50;;;22.30;67.50;;;;;;6012122;29;89618;-72
2023/03/09 06:50:11;;;;;;;5.15;4.43;;;22.30;67.40;;;;;;6016106;29;90189;-71
2023/03/09 06:53:14;;;;;;;5.03;4.00;;;22.30;67.40;;;;;;6015689;29;89204;-71
2023/03/09 06:56:16;;;;;;;4.80;4.30;;;22.30;67.40;;;;;;6010782;29;88942;-71
2023/03/09 06:59:18;;;;;;;4.57;4.10;;;22.20;67.40;;;;;;6015454;29;89442;-71
2023/03/09 07:02:21;;;;;;;4.95;4.43;;;22.30;67.40;;;;;;6012857;29;88830;-71
2023/03/09 07:05:24;;;;;;;5.85;4.47;;;22.30;67.40;;;;;;6005980;29;89150;-72
2023/03/09 07:08:26;;;;;;;6.90;5.10;;;22.30;67.40;;;;;;6015059;29;89149;-71
2023/03/09 07:11:28;;;;;;;4.60;4.10;;;22.30;67.40;;;;;;6003415;29;88422;-72
2023/03/09 07:14:30;;;;;;;4.35;3.95;;;22.30;67.40;;;;;;6007703;29;89100;-71
2023/03/09 07:17:34;;;;;;;5.22;4.18;;;22.30;67.50;;;;;;6011995;29;88062;-71
2023/03/09 07:20:37;;;;;;;4.78;3.90;;;22.30;67.60;;;;;;6004991;29;88887;-71
2023/03/09 07:23:39;;;;;;;4.60;4.05;;;22.20;67.50;;;;;;6013688;29;89581;-71
2023/03/09 07:26:41;;;;;;;5.95;4.22;;;22.30;67.50;;;;;;6014785;29;89181;-72
2023/03/09 07:29:44;;;;;;;4.90;3.72;;;22.30;67.40;;;;;;6003915;29;89440;-71
2023/03/09 07:32:47;;;;;;;4.65;4.10;;;22.30;67.50;;;;;;5997886;29;89073;-72
2023/03/09 07:35:49;;;;;;;5.43;4.05;;;22.30;67.40;;;;;;6006399;29;89143;-71
2023/03/09 07:38:52;;;;;;;3.85;3.55;;;22.30;67.40;;;;;;6015614;29;88074;-72
2023/03/09 07:41:54;;;;;;;4.18;3.78;;;22.30;67.40;;;;;;6014785;29;88415;-71
2023/03/09 07:44:56;;;;;;;3.70;3.40;;;22.30;67.40;;;;;;6011630;29;89320;-71
2023/03/09 07:47:59;;;;;;;4.00;3.70;;;22.30;67.40;;;;;;6010953;29;89064;-72
2023/03/09 07:51:01;;;;;;;4.25;3.40;;;22.30;67.90;;;;;;6014539;29;90083;-72
2023/03/09 07:54:05;;;;;;;4.47;3.67;;;22.40;67.60;;;;;;6007888;29;89068;-72
2023/03/09 07:57:07;;;;;;;4.28;3.67;;;22.30;67.40;;;;;;6002742;29;89046;-72
2023/03/09 08:00:20;;;;;;;3.67;3.30;;;22.40;67.60;;;;;;6004643;29;89106;-72
2023/03/09 08:03:24;;;;;;;4.10;3.70;;;22.40;67.60;;;;;;6011901;29;88862;-72
2023/03/09 08:06:26;;;;;;;5.63;3.55;;;22.30;67.60;;;;;;6014133;29;88249;-72
2023/03/09 08:09:28;;;;;;;3.78;3.45;;;22.30;67.60;;;;;;6001734;29;89085;-71
2023/03/09 08:12:30;;;;;;;3.50;3.20;;;22.30;67.60;;;;;;6007871;29;88268;-72
2023/03/09 08:15:32;;;;;;;4.38;3.13;;;22.30;67.60;;;;;;6008525;29;89516;-72
2023/03/09 08:18:36;;;;;;;4.78;3.40;;;22.30;67.60;;;;;;5997957;29;89085;-72
2023/03/09 08:21:38;;;;;;;3.50;3.20;;;22.30;67.60;;;;;;6008090;29;90178;-72
2023/03/09 08:28:37;;;;;;;3.78;3.42;;;22.30;67.60;;;;;;5997355;29;89038;-69
2023/03/09 08:31:39;;;;;;;3.38;3.08;;;22.30;67.60;;;;;;6006364;29;88073;-70
2023/03/09 08:34:43;;;;;;;3.47;3.17;;;22.30;67.60;;;;;;6005788;29;89146;-70
2023/03/09 08:37:45;;;;;;;3.22;2.92;;;22.30;67.60;;;;;;6006604;29;90212;-70
2023/03/09 08:40:47;;;;;;;3.05;2.75;;;22.30;67.70;;;;;;6008690;29;89074;-70
2023/03/09 08:43:51;;;;;;;2.92;2.72;;;22.30;67.60;;;;;;6000697;29;88519;-70
2023/03/09 08:46:55;;;;;;;3.17;2.88;;;22.30;67.70;;;;;;6000974;29;89235;-70
2023/03/09 08:49:58;;;;;;;3.05;2.75;;;22.30;67.60;;;;;;6000666;29;87862;-67
2023/03/09 08:53:00;;;;;;;4.00;3.03;;;22.40;67.70;;;;;;6009765;29;90499;-69
2023/03/09 08:56:04;;;;;;;3.58;2.85;;;22.40;67.80;;;;;;6007612;29;89191;-69
2023/03/09 08:59:06;;;;;;;3.95;2.78;;;22.40;67.90;;;;;;6012623;29;89490;-69
2023/03/09 09:02:14;;;;;;;3.17;2.75;;;22.30;67.70;;;;;;6003959;29;89129;-69
2023/03/09 09:05:18;;;;;;;2.95;2.65;;;22.40;67.80;;;;;;6007677;29;89014;-69
2023/03/09 09:08:20;;;;;;;3.70;2.80;;;22.30;67.70;;;;;;6009974;29;89132;-69
2023/03/09 09:11:22;;;;;;;3.00;2.70;;;22.30;68.70;;;;;;6000309;29;88918;-69
2023/03/09 09:14:24;;;;;;;2.85;2.55;;;22.40;67.80;;;;;;6011204;29;88589;-69
2023/03/09 09:17:26;;;;;;;2.97;2.50;;;22.30;67.70;;;;;;6004884;29;90418;-69
2023/03/09 09:20:30;;;;;;;3.33;2.33;;;22.40;67.80;;;;;;6003840;29;89203;-70
2023/03/09 09:23:32;;;;;;;2.80;2.40;;;22.40;67.90;;;;;;6012324;29;89995;-69
2023/03/09 09:26:34;;;;;;;2.85;2.60;;;22.40;67.70;;;;;;6011970;29;89158;-70
2023/03/09 09:29:37;;;;;;;2.55;2.35;;;22.40;67.70;;;;;;6013149;29;88355;-69
2023/03/09 09:32:40;;;;;;;3.00;2.70;;;22.40;67.70;;;;;;6012546;29;89052;-70
2023/03/09 09:35:43;;;;;;;2.90;2.55;;;22.40;67.70;;;;;;6011236;29;89136;-70
2023/03/09 09:38:45;;;;;;;3.08;2.33;;;22.40;67.70;;;;;;6013586;29;89138;-70
2023/03/09 09:41:51;;;;;;;3.00;2.40;;;22.40;67.70;;;;;;6003764;29;89587;-69
2023/03/09 09:44:56;;;;;;;3.35;2.50;;;22.40;67.70;;;;;;5994839;29;88432;-70
2023/03/09 09:48:03;;;;;;;2.70;2.28;;;22.40;67.70;;;;;;5994551;29;89020;-70
2023/03/09 09:51:18;;;;;;;2.83;2.40;;;22.40;67.70;;;;;;6009883;29;89218;-70
2023/03/09 09:54:29;;;;;;;2.20;2.00;;;22.40;67.70;;;;;;6009656;29;90257;-70
2023/03/09 09:57:39;;;;;;;2.58;2.22;;;22.40;67.80;;;;;;6009320;29;88009;-70
2023/03/09 10:00:44;;;;;;;3.10;2.45;;;22.40;67.70;;;;;;6007708;29;89193;-70
2023/03/09 10:03:50;;;;;;;2.53;2.30;;;22.50;67.80;;;;;;6011637;29;89189;-70
2023/03/09 10:06:56;;;;;;;2.53;2.33;;;22.50;67.80;;;;;;6013740;29;89302;-70
2023/03/09 10:10:03;;;;;;;2.58;2.33;;;22.50;67.90;;;;;;6015825;29;89073;-70
2023/03/09 10:13:14;;;;;;;2.50;2.30;;;22.50;67.90;;;;;;6015220;29;89063;-70
2023/03/09 10:16:21;;;;;;;2.30;2.10;;;22.50;67.90;;;;;;6015531;29;87303;-70
2023/03/09 10:19:30;;;;;;;3.55;2.35;;;22.50;67.90;;;;;;6014806;29;88339;-70
2023/03/09 10:22:34;;;;;;;2.45;2.15;;;22.50;67.90;;;;;;6015644;29;88005;-70
2023/03/09 10:25:36;;;;;;;2.58;2.15;;;22.50;67.90;;;;;;6013025;29;88956;-70
2023/03/09 10:28:44;;;;;;;2.40;2.20;;;22.50;67.90;;;;;;6011085;29;88238;-70
2023/03/09 10:31:52;;;;;;;2.30;2.10;;;22.50;67.90;;;;;;6009922;29;87973;-70
2023/03/09 10:34:59;;;;;;;2.28;2.08;;;22.50;67.90;;;;;;6012084;29;89030;-71
2023/03/09 10:38:02;;;;;;;2.45;2.10;;;22.50;67.90;;;;;;6010594;29;87947;-70
2023/03/09 10:41:06;;;;;;;2.65;2.25;;;22.50;68.00;;;;;;6008127;29;89336;-69
2023/03/09 10:44:08;;;;;;;2.20;2.00;;;22.50;67.90;;;;;;6014169;29;89150;-70
2023/03/09 10:47:10;;;;;;;2.40;2.20;;;22.50;67.90;;;;;;6009855;29;88304;-71
2023/03/09 10:50:13;;;;;;;3.00;2.25;;;22.50;68.00;;;;;;6005378;29;89059;-70
2023/03/09 10:53:32;;;;;;;3.05;2.10;;;22.50;68.00;;;;;;6006876;29;88355;-70
2023/03/09 10:56:43;;;;;;;2.63;2.20;;;22.60;68.10;;;;;;6012047;29;90024;-70
2023/03/09 10:59:55;;;;;;;2.30;2.10;;;22.50;68.00;;;;;;6007662;29;89136;-71
2023/03/09 11:03:00;;;;;;;2.60;2.35;;;22.60;68.10;;;;;;6009433;29;89397;-70
2023/03/09 11:06:32;;;;;;;2.88;2.20;;;22.50;68.00;;;;;;6009400;29;87955;-70
2023/03/09 11:09:46;;;;;;;2.80;2.33;;;22.60;68.10;;;;;;6001282;29;89189;-70
2023/03/09 11:12:49;;;;;;;2.95;2.10;;;22.60;68.10;;;;;;6010594;29;89026;-72
2023/03/09 11:16:06;;;;;;;4.20;2.53;;;22.60;68.10;;;;;;6012255;29;89157;-70
2023/03/09 11:19:13;;;;;;;3.17;2.42;;;22.60;68.30;;;;;;6001912;29;88436;-72
2023/03/09 11:22:15;;;;;;;3.70;2.17;;;22.60;68.30;;;;;;6009423;29;89168;-73
2023/03/09 11:25:40;;;;;;;3.72;2.00;;;22.60;68.30;;;;;;6011910;29;89512;-72
2023/03/09 11:28:50;;;;;;;3.53;2.30;;;22.60;68.40;;;;;;6006242;29;90005;-73
2023/03/09 11:31:52;;;;;;;4.93;1.92;;;22.70;68.40;;;;;;6011230;29;88802;-74
2023/03/09 11:34:54;;;;;;;2.95;2.05;;;22.60;68.40;;;;;;6007062;29;89063;-73
2023/03/09 11:38:03;;;;;;;3.10;1.98;;;22.70;68.50;;;;;;6008402;29;88127;-72
2023/03/09 11:41:13;;;;;;;3.78;2.10;;;22.70;68.40;;;;;;6006013;29;89154;-73
2023/03/09 11:44:23;;;;;;;3.85;2.20;;;22.70;68.60;;;;;;5999911;29;89267;-73
2023/03/09 11:47:31;;;;;;;5.32;2.10;;;22.70;68.50;;;;;;6005840;29;89655;-74
2023/03/09 11:50:37;;;;;;;4.43;2.05;;;22.70;68.60;;;;;;6009989;29;88854;-72
2023/03/09 11:53:43;;;;;;;3.65;2.15;;;22.70;68.60;;;;;;6013047;29;88036;-71
2023/03/09 11:56:48;;;;;;;4.95;2.20;;;22.70;68.50;;;;;;6013120;29;89088;-72
2023/03/09 11:59:55;;;;;;;2.72;1.80;;;22.70;68.30;;;;;;6012338;29;90027;-72
2023/03/09 12:03:02;;;;;;;3.92;2.20;;;22.70;68.30;;;;;;6015239;29;89665;-72
2023/03/09 12:06:13;;;;;;;3.88;2.08;;;22.70;68.30;;;;;;6010507;29;89185;-72
2023/03/09 12:09:26;;;;;;;3.10;1.80;;;22.70;68.20;;;;;;6009534;29;89032;-72
2023/03/09 12:12:32;;;;;;;2.70;2.03;;;22.70;68.20;;;;;;6007184;29;89325;-73
2023/03/09 12:15:38;;;;;;;2.95;2.17;;;22.70;68.10;;;;;;6005104;29;89060;-72
2023/03/09 12:18:46;;;;;;;2.58;1.90;;;22.70;68.10;;;;;;6003923;29;89431;-71
2023/03/09 12:21:59;;;;;;;3.38;1.90;;;22.70;68.10;;;;;;6011631;29;89916;-73
2023/03/09 12:25:03;;;;;;;2.17;1.70;;;22.70;68.10;;;;;;6002442;29;89211;-72
2023/03/09 12:28:21;;;;;;;3.35;2.17;;;22.70;68.10;;;;;;6007918;29;88102;-72
2023/03/09 12:31:31;;;;;;;2.63;1.92;;;22.70;68.10;;;;;;5998536;29;90049;-72
2023/03/09 12:34:40;;;;;;;2.72;1.95;;;22.70;68.10;;;;;;6007293;29;89315;-72
2023/03/09 12:37:56;;;;;;;2.25;2.03;;;22.70;68.00;;;;;;6001280;29;89166;-72
2023/03/09 12:40:58;;;;;;;2.92;2.00;;;22.70;68.00;;;;;;6011479;29;89018;-72
2023/03/09 12:44:02;;;;;;;3.72;2.30;;;22.70;67.90;;;;;;6013641;29;89091;-72
2023/03/09 12:47:04;;;;;;;2.35;1.85;;;22.70;67.90;;;;;;6012836;29;87914;-73
2023/03/09 12:50:23;;;;;;;2.35;1.80;;;22.70;67.90;;;;;;6008929;29;89136;-73
2023/03/09 12:53:30;;;;;;;3.17;1.90;;;22.70;67.90;;;;;;6004748;29;88443;-72
2023/03/09 14:21:18;;;;;;;2.25;1.70;;;22.70;67.90;;;;;;6009495;29;90787;-73
2023/03/09 14:24:26;;;;;;;2.30;1.70;;;22.70;67.90;;;;;;6001217;29;89093;-72
2023/03/09 14:27:31;;;;;;;2.20;1.42;;;22.70;67.90;;;;;;6009698;29;89109;-72
2023/03/09 14:30:42;;;;;;;2.17;1.70;;;22.70;67.90;;;;;;6000854;29;89080;-72
2023/03/09 14:33:56;;;;;;;1.60;1.40;;;22.70;67.90;;;;;;6009943;29;88802;-74
2023/03/09 14:36:59;;;;;;;2.20;1.55;;;22.80;67.90;;;;;;6012697;29;89109;-72
2023/03/09 14:40:18;;;;;;;2.08;1.60;;;22.70;67.90;;;;;;5999925;29;89278;-73
2023/03/09 14:43:21;;;;;;;1.65;1.40;;;22.70;67.90;;;;;;6005541;29;88415;-72
2023/03/09 14:46:25;;;;;;;1.65;1.40;;;22.70;68.00;;;;;;5999874;29;89020;-72
2023/03/09 14:49:28;;;;;;;2.35;1.52;;;22.70;67.90;;;;;;6012802;29;89188;-72
2023/03/09 14:52:30;;;;;;;2.63;1.75;;;22.70;67.90;;;;;;6008646;29;88929;-72
2023/03/09 14:55:34;;;;;;;2.72;1.80;;;22.70;67.90;;;;;;6007819;29;89077;-72
2023/03/09 14:58:38;;;;;;;1.77;1.67;;;22.70;67.90;;;;;;6003571;29;89213;-74
2023/03/09 15:01:42;;;;;;;3.63;1.35;;;22.70;67.90;;;;;;6006014;29;87985;-75
2023/03/09 15:04:47;;;;;;;1.58;1.38;;;22.70;67.90;;;;;;6012999;29;89028;-74
2023/03/09 15:07:49;;;;;;;3.03;1.63;;;22.80;67.90;;;;;;5995934;29;89152;-74
2023/03/09 15:10:56;;;;;;;2.65;1.65;;;22.70;67.90;;;;;;6015772;29;88087;-75
2023/03/09 15:13:58;;;;;;;1.50;1.40;;;22.70;67.90;;;;;;6005738;29;87458;-73
2023/03/09 15:17:02;;;;;;;1.98;1.25;;;22.70;68.00;;;;;;6015208;29;88983;-74
2023/03/09 15:20:04;;;;;;;1.60;1.20;;;22.70;68.00;;;;;;5998508;29;89575;-75
2023/03/09 15:23:06;;;;;;;1.83;1.30;;;22.80;68.10;;;;;;6010928;29;90175;-74
2023/03/09 15:26:10;;;;;;;1.40;1.30;;;22.70;67.90;;;;;;6007655;29;89068;-75
2023/03/09 15:29:12;;;;;;;1.75;1.30;;;22.70;67.90;;;;;;6005816;29;88981;-73
2023/03/09 15:32:14;;;;;;;4.35;1.90;;;22.70;67.90;;;;;;6008757;29;89193;-74
2023/03/09 15:35:18;;;;;;;2.53;1.50;;;22.80;67.90;;;;;;6009556;29;89242;-75
2023/03/09 15:38:20;;;;;;;1.48;1.20;;;22.80;67.90;;;;;;6016283;29;88702;-74
2023/03/09 15:41:24;;;;;;;1.30;1.20;;;22.70;67.90;;;;;;6015897;29;89112;-75
2023/03/09 15:44:26;;;;;;;2.00;1.30;;;22.70;67.90;;;;;;5995168;29;87291;-74
2023/03/09 15:47:28;;;;;;;1.60;1.25;;;22.80;67.90;;;;;;6014226;29;89174;-75
2023/03/09 15:50:30;;;;;;;2.03;1.30;;;22.70;67.90;;;;;;6007780;29;89166;-74
2023/03/09 15:53:33;;;;;;;1.73;1.40;;;22.70;68.00;;;;;;6013159;29;90137;-74
2023/03/09 15:56:36;;;;;;;2.78;1.50;;;22.70;68.00;;;;;;6010749;29;89140;-74
2023/03/09 15:59:39;;;;;;;1.77;1.20;;;22.70;68.00;;;;;;6007013;29;89316;-73
2023/03/09 16:02:41;;;;;;;2.75;1.40;;;22.70;68.00;;;;;;6013630;29;89442;-73
2023/03/09 16:05:43;;;;;;;1.60;1.30;;;22.70;68.00;;;;;;5995229;29;88927;-74
2023/03/09 16:08:45;;;;;;;1.45;1.33;;;22.80;68.10;;;;;;5995097;29;89772;-73
2023/03/09 16:11:49;;;;;;;2.35;1.30;;;22.70;68.00;;;;;;6005749;29;89036;-73
2023/03/09 16:14:51;;;;;;;2.55;1.42;;;22.70;68.00;;;;;;6000671;29;88289;-72
2023/03/09 16:17:53;;;;;;;1.88;1.45;;;22.70;68.00;;;;;;6012193;29;88329;-71
2023/03/09 16:21:00;;;;;;;2.00;1.50;;;22.70;68.00;;;;;;6009507;29;88861;-73
2023/03/09 16:24:02;;;;;;;2.45;1.35;;;22.70;68.00;;;;;;6011665;29;89994;-72
2023/03/09 16:27:06;;;;;;;1.52;1.40;;;22.70;68.10;;;;;;5998684;29;89281;-71
2023/03/09 16:30:09;;;;;;;1.88;1.35;;;22.70;68.10;;;;;;6012680;29;89180;-72
2023/03/09 16:33:11;;;;;;;1.50;1.40;;;22.80;68.10;;;;;;6010799;29;89370;-73
2023/03/09 16:36:14;;;;;;;1.75;1.40;;;22.70;67.90;;;;;;6014518;29;89499;-72
2023/03/09 16:39:16;;;;;;;1.58;1.42;;;22.80;68.00;;;;;;6014506;29;89047;-71
2023/03/09 16:42:20;;;;;;;1.42;1.33;;;22.70;67.90;;;;;;6014857;29;89145;-72
2023/03/09 16:45:22;;;;;;;1.80;1.60;;;22.80;67.90;;;;;;6001748;29;88240;-72
2023/03/09 16:48:26;;;;;;;2.88;1.70;;;22.70;67.90;;;;;;6002156;29;89353;-72
2023/03/09 16:51:28;;;;;;;3.42;1.85;;;22.80;67.90;;;;;;6004018;29;89068;-72
2023/03/09 16:54:30;;;;;;;1.38;1.23;;;22.70;67.80;;;;;;6004499;29;90096;-72
2023/03/09 16:57:34;;;;;;;1.50;1.40;;;22.80;67.90;;;;;;6013658;29;89192;-72
2023/03/09 17:00:37;;;;;;;1.30;1.20;;;22.80;67.90;;;;;;6000769;29;87905;-72
2023/03/09 17:03:39;;;;;;;1.67;1.50;;;22.80;67.90;;;;;;6000365;29;88721;-72
2023/03/09 17:06:42;;;;;;;2.05;1.50;;;22.70;67.80;;;;;;6001670;29;88995;-73
2023/03/09 17:21:13;;;;;;;2.05;1.60;;;22.80;67.90;;;;;;6007772;29;90127;-72
2023/03/09 17:24:15;;;;;;;1.38;1.27;;;22.70;67.90;;;;;;6011556;29;89426;-72
2023/03/09 17:27:18;;;;;;;2.13;1.60;;;22.70;67.90;;;;;;6004923;29;88991;-73
2023/03/09 17:30:22;;;;;;;1.88;1.40;;;22.70;67.90;;;;;;6010776;29;89203;-72